Tiempo atmosférico en la estación meteorológica de Albarracín, Teruel (1130 m.)

Fecha
DESCASC
Temp. máxima en grados centígrados (hora)
DESCASC
Temp. mínima en grados centígrados (hora)
DESCASC
Temp. media en grados centígrados
DESCASC
Racha de viento máxima en m/sg (hora)
DESCASC
Velocidad máxima media en intervalos de 10 minutos(hora)
DESCASC
Precipitaciones diarias en mm
DESCASC
Precipitaciones de 00:00 a 06:00 en mm
DESCASC
Precipitaciones de 06:00 a 12:00 en mm
DESCASC
Precipitaciones de 12:00 a 18:00 en mm
DESCASC
Precipitaciones de 18:00 a 24:00 en mm
DESCASC
09-09-2017 19.6 (12:30) 9.9 (00:00) 14.8 12.5 (18:20) 7.5 (18:30) 1.4 0 0 0 1.4
23-09-2017 23.5 (15:30) 8 (00:00) 15.8 6.94 (14:20) 4.44 (05:10) 1.2 1.2 0 0 0
21-09-2017 26.9 (17:20) 8 (00:00) 17.4 8.33 (13:20) 4.72 (08:40) 0 0 0 0 0
20-09-2017 25.1 (16:40) 4.7 (00:00) 14.9 6.94 (09:30) 4.17 (09:30) 0 0 0 0 0
19-09-2017 21.8 (16:40) 3.8 (00:00) 12.8 11.11 (15:30) 6.39 (15:30) 0 0 0 0 0
18-09-2017 20.9 (17:00) 4.5 (00:00) 12.7 10 (16:40) 5.28 (16:40) 0 0 0 0 0
17-09-2017 22.6 (15:30) 2.2 (00:00) 12.4 8.89 (16:10) 4.44 (14:00) 0 0 0 0 0
16-09-2017 17.3 (17:20) 1.6 (00:00) 9.4 7.22 (18:20) 3.61 (19:40) 0 0 0 0 0
15-09-2017 11.2 (00:00) 7.3 (00:00) 9.3 9.72 (12:50) 5.83 (13:00) 0 0 0 0 0
14-09-2017 25 (17:30) 10.5 (00:00) 17.8 9.17 (13:40) 4.72 (13:50) 0 0 0 0 0
13-09-2017 29.1 (16:20) 8.9 (00:00) 19 10 (15:10) 5.56 (14:10) 0 0 0 0 0
12-09-2017 23.3 (17:00) 9.5 (00:00) 16.4 9.72 (15:20) 5.56 (18:20) 0 0 0 0 0
11-09-2017 26.9 (15:50) 11.5 (00:00) 19.2 10.83 (14:30) 5.83 (14:40) 0 0 0 0 0
10-09-2017 18.8 (18:20) 7.7 (00:00) 13.2 15.56 (12:40) 8.61 (08:20) 0 0 0 0 0
25-08-2017 32.4 (15:00) 16.4 (00:00) 24.4 13.89 (12:40) 8.89 (12:40) 0 0 0 0 0
08-09-2017 28.7 (16:40) 7.8 (00:00) 18.3 8.06 (16:50) 4.72 (12:50) 0 0 0 0 0
07-09-2017 25.6 (16:50) 11.6 (00:00) 18.6 10 (17:20) 5.56 (18:30) 0 0 0 0 0
06-09-2017 25.8 (15:10) 13.5 (00:00) 19.6 6.67 (19:20) 3.33 (19:00) 0.8 0 0 0.8 0
05-09-2017 28.9 (17:40) 14 (00:00) 21.4 7.78 (13:00) 3.89 (14:00) 0 0 0 0 0
04-09-2017 25.2 (16:50) 10.7 (00:00) 18 7.22 (13:00) 4.44 (00:50) 0 0 0 0 0
03-09-2017 27.6 (14:50) 8.5 (00:00) 18.1 8.89 (16:10) 4.17 (16:30) 0 0 0 0 0
02-09-2017 22.8 (18:30) 6.4 (00:00) 14.6 6.11 (00:10) 3.89 (00:10) 0 0 0 0 0
01-09-2017 21.5 (15:20) 11.9 (00:00) 16.7 7.5 (21:20) 4.17 (21:20) 0 0 0 0 0
31-08-2017 21.5 (15:30) 11.6 (00:00) 16.6 10.28 (16:20) 6.67 (16:20) 0.6 0 0 0.6 0
30-08-2017 24.1 (18:00) 14.8 (00:00) 19.5 8.33 (01:30) 3.89 (21:30) 0 0 0 0 0
28-08-2017 28.5 (13:20) 12.9 (00:00) 20.7 14.17 (14:10) 7.78 (14:10) 3.8 0 0 0 3.8
27-08-2017 27.7 (12:50) 15.3 (00:00) 21.5 10.83 (14:10) 6.39 (14:00) 2.8 0.6 0 1.8 0.4
26-08-2017 31.5 (14:40) 17.9 (00:00) 24.7 11.94 (16:40) 5.83 (14:20) 2.2 0 0 2 0.2
29-08-2017 22.5 (14:40) 12.3 (00:00) 17.4 13.89 (17:30) 8.33 (17:30) 7.2 6.6 0.4 0.2 0
22-09-2017 21.3 (17:00) 11.3 (00:00) 16.3 12.78 (20:50) 8.33 (20:50) 6 0 1.6 0.8 3.6

Gráficas

Temp. máximas Temp. mínimas Temp. medias Precipitaciones Rachas de viento máximas Velocidades máximas media en intervalos de 10 minutos

Datos horarios

Fecha y hora oficial Temperatura (ºC) Velocidad del viento (km/h) Dirección del viento Racha (km/h) Dirección de racha Precipitación (mm) Presión (hPa) Tendencia (hPa) Humedad (%)
2017-09-23 23:00:00 14.1 4 Sur 8 Sudeste 0 -- -- 72
2017-09-23 22:00:00 15.1 3 Sur 8 Oeste 0 -- -- 68
2017-09-23 21:00:00 16.7 3 Sur 6 Sur 0 -- -- 61
2017-09-23 20:00:00 18.3 3 Noroeste 7 Oeste 0 -- -- 54
2017-09-23 19:00:00 21.2 0 Calma 17 Este 0 -- -- 45
2017-09-23 18:00:00 22.8 9 Este 22 Nordeste 0 -- -- 40
2017-09-23 17:00:00 21.9 3 Este 18 Este 0 -- -- 44
2017-09-23 16:00:00 22.9 7 Nordeste 23 Nordeste 0 -- -- 42
2017-09-23 15:00:00 22.8 9 Este 25 Este 0 -- -- 47
2017-09-23 14:00:00 22.1 8 Este 18 Nordeste 0 -- -- 48
2017-09-23 13:00:00 19.9 10 Norte 16 Norte 0 -- -- 63
2017-09-23 12:00:00 19.3 6 Sudeste 12 Este 0 -- -- 60
2017-09-23 11:00:00 15.4 5 Este 17 Este 0 -- -- 72
2017-09-23 10:00:00 11.6 10 Sudeste 21 Sudeste 0 -- -- 84
2017-09-23 09:00:00 8.6 14 Sudeste 20 Sudeste 0 -- -- 90
2017-09-23 08:00:00 8.2 9 Sudeste 16 Sudeste 0 -- -- 90
2017-09-23 07:00:00 8.6 8 Sudeste 11 Sur 0 -- -- 90
2017-09-23 06:00:00 9.1 8 Sudeste 23 Sudeste 0 -- -- 89
2017-09-23 05:00:00 9.7 12 Sudeste 17 Sur 0 -- -- 89
2017-09-23 04:00:00 10.4 15 Sudeste 24 Sudeste 0 -- -- 87
2017-09-23 03:00:00 10.8 12 Sudeste 24 Sudoeste 0 -- -- 88
2017-09-23 02:00:00 11 5 Sur 22 Sudeste 1.2 -- -- 89
2017-09-23 01:00:00 11.4 9 Sur 20 Sudeste 0 -- -- 86
2017-09-23 00:00:00 11.3 2 Nordeste 17 Sudoeste 0.2 -- -- 89
2017-09-22 23:00:00 11.4 7 Sur 17 Sudoeste 1 -- -- 88
2017-09-22 22:00:00 12.4 4 Sur 20 Sudeste 2.4 -- -- 81
2017-09-22 21:00:00 15 17 Noroeste 46 Noroeste 0 -- -- 58
2017-09-22 20:00:00 16.1 7 Este 30 Noroeste 0 -- -- 52
2017-09-22 19:00:00 19.1 14 Norte 30 Norte 0 -- -- 49
2017-09-22 18:00:00 20.1 8 Este 17 Este 0 -- -- 44
2017-09-22 17:00:00 21.3 6 Este 23 Este 0 -- -- 49
2017-09-22 16:00:00 19.6 11 Norte 26 Norte 0 -- -- 58
2017-09-22 15:00:00 18.6 9 Norte 19 Norte 0 -- -- 68
2017-09-22 14:00:00 16.6 4 Sur 10 Noroeste 0 -- -- 74
2017-09-22 13:00:00 15.1 3 Norte 13 Sur 0.8 -- -- 82
2017-09-22 12:00:00 15.5 6 Sudeste 12 Sudeste 0 -- -- 76
2017-09-22 11:00:00 13.9 2 Nordeste 9 Nordeste 0 -- -- 87
2017-09-22 10:00:00 13 5 Norte 10 Norte 1.6 -- -- 91
2017-09-22 09:00:00 12.6 4 Sudoeste 9 Norte 0 -- -- 87
2017-09-22 08:00:00 12.1 0 Calma 3 Oeste 0 -- -- 87
2017-09-22 07:00:00 12 0 Calma 5 Oeste 0 -- -- 86
2017-09-22 06:00:00 12.3 0 Calma 4 Oeste 0 -- -- 87
2017-09-22 05:00:00 12.6 2 Noroeste 5 Sudeste 0 -- -- 83
2017-09-22 04:00:00 13.6 3 Sudeste 5 Sudeste 0 -- -- 81
2017-09-22 03:00:00 14.4 3 Norte 14 Sudoeste 0 -- -- 80
2017-09-22 02:00:00 15.1 8 Sur 22 Sur 0 -- -- 78
2017-09-22 01:00:00 15.9 14 Sur 25 Sur 0 -- -- 79
2017-09-22 00:00:00 17 16 Sur 22 Sur 0 -- -- 75
2017-09-21 23:00:00 17.1 3 Norte 12 Norte 0 -- -- 68
2017-09-21 22:00:00 19.1 9 Noroeste 15 Nordeste 0 -- -- 57
2017-09-21 21:00:00 21.2 9 Norte 25 Oeste 0 -- -- 40
2017-09-21 20:00:00 22.5 13 Oeste 23 Sudoeste 0 -- -- 33
2017-09-21 19:00:00 24.3 12 Sur 23 Sur 0 -- -- 29
2017-09-21 18:00:00 26.2 8 Sudeste 23 Sudeste 0 -- -- 25
2017-09-21 17:00:00 26.8 8 Sudoeste 20 Noroeste 0 -- -- 22
2017-09-21 16:00:00 25.4 10 Noroeste 24 Sudeste 0 -- -- 25
2017-09-21 15:00:00 26.2 9 Oeste 22 Sudoeste 0 -- -- 25
2017-09-21 14:00:00 25.3 11 Sur 30 Este 0 -- -- 27
2017-09-21 13:00:00 24.6 9 Sudeste 21 Sudeste 0 -- -- 28
2017-09-21 12:00:00 23.9 9 Sudeste 14 Sudeste 0 -- -- 30
2017-09-21 11:00:00 18.4 9 Este 18 Este 0 -- -- 53
2017-09-21 10:00:00 13.2 11 Este 23 Sudeste 0 -- -- 61
2017-09-21 09:00:00 9.2 13 Sudeste 27 Sudeste 0 -- -- 68
2017-09-21 08:00:00 8.1 9 Sudeste 16 Este 0 -- -- 67
2017-09-21 07:00:00 8.7 12 Este 23 Sudeste 0 -- -- 61
2017-09-21 06:00:00 8.8 9 Sudeste 24 Este 0 -- -- 58
2017-09-21 05:00:00 9.3 10 Sudeste 17 Este 0 -- -- 54
2017-09-21 04:00:00 9.7 11 Sudeste 19 Este 0 -- -- 50
2017-09-21 03:00:00 10.4 11 Sudeste 17 Sudeste 0 -- -- 48
2017-09-21 02:00:00 10.3 0 Calma 17 Sudeste 0 -- -- 54
2017-09-21 01:00:00 11.4 10 Sudeste 18 Sudeste 0 -- -- 51
2017-09-21 00:00:00 12.4 2 Sudoeste 5 Oeste 0 -- -- 54
2017-09-20 23:00:00 13.6 2 Sudoeste 6 Norte 0 -- -- 61
2017-09-20 22:00:00 15.6 6 Noroeste 9 Norte 0 -- -- 47
2017-09-20 21:00:00 17.2 6 Noroeste 10 Noroeste 0 -- -- 34
2017-09-20 20:00:00 20.5 7 Oeste 11 Norte 0 -- -- 24
2017-09-20 19:00:00 23.4 6 Norte 19 Norte 0 -- -- 21
2017-09-20 18:00:00 24.4 6 Norte 18 Norte 0 -- -- 20
2017-09-20 17:00:00 24.6 9 Norte 23 Norte 0 -- -- 20
2017-09-20 16:00:00 24.3 7 Norte 21 Norte 0 -- -- 22
2017-09-20 15:00:00 24.1 6 Este 21 Norte 0 -- -- 22
2017-09-20 14:00:00 23.3 8 Nordeste 21 Nordeste 0 -- -- 22
2017-09-20 13:00:00 21.1 10 Norte 17 Norte 0 -- -- 25
2017-09-20 12:00:00 19.3 9 Norte 16 Nordeste 0 -- -- 30
2017-09-20 11:00:00 15.7 5 Este 21 Este 0 -- -- 41
2017-09-20 10:00:00 10.2 13 Este 25 Sudeste 0 -- -- 54
2017-09-20 09:00:00 5.9 8 Sudeste 18 Este 0 -- -- 67
2017-09-20 08:00:00 4.8 5 Sudeste 18 Sudeste 0 -- -- 70
2017-09-20 07:00:00 4.9 3 Sudeste 10 Sudeste 0 -- -- 70
2017-09-20 06:00:00 6 3 Noroeste 16 Este 0 -- -- 66
2017-09-20 05:00:00 5.9 4 Este 13 Este 0 -- -- 67
2017-09-20 04:00:00 6.9 2 Sudeste 15 Sudeste 0 -- -- 63
2017-09-20 03:00:00 7.4 3 Sur 13 Sudeste 0 -- -- 62
2017-09-20 02:00:00 7.8 0 Calma 5 Sudeste 0 -- -- 62
2017-09-20 01:00:00 8.6 3 Sur 9 Noroeste 0 -- -- 62
2017-09-20 00:00:00 9.7 6 Oeste 8 Oeste 0 -- -- 58
2017-09-19 23:00:00 11.6 3 Oeste 9 Noroeste 0 -- -- 50
2017-09-19 22:00:00 13.9 3 Noroeste 13 Norte 0 -- -- 45
2017-09-19 21:00:00 15.6 4 Sudoeste 19 Noroeste 0 -- -- 37
2017-09-19 20:00:00 -- -- -- -- -- -- -- -- --
2017-09-19 19:00:00 -- -- -- -- -- -- -- -- --
2017-09-19 18:00:00 -- -- -- -- -- -- -- -- --
2017-09-19 17:00:00 -- -- -- -- -- -- -- -- --
2017-09-19 16:00:00 -- -- -- -- -- -- -- -- --
2017-09-19 15:00:00 -- -- -- -- -- -- -- -- --
2017-09-19 14:00:00 -- -- -- -- -- -- -- -- --
2017-09-19 13:00:00 -- -- -- -- -- -- -- -- --
2017-09-19 12:00:00 -- -- -- -- -- -- -- -- --
2017-09-19 11:00:00 -- -- -- -- -- -- -- -- --
2017-09-19 10:00:00 -- -- -- -- -- -- -- -- --
2017-09-19 09:00:00 -- -- -- -- -- -- -- -- --
2017-09-19 08:00:00 -- -- -- -- -- -- -- -- --
2017-09-19 07:00:00 4.6 2 Noroeste 7 Este 0 -- -- 82
2017-09-19 06:00:00 5.1 0 Calma 5 Sudeste 0 -- -- 81
2017-09-19 05:00:00 5.7 0 Calma 6 Oeste 0 -- -- 78
2017-09-19 04:00:00 6.6 3 Sur 6 Sudeste 0 -- -- 76
2017-09-19 03:00:00 7.4 0 Calma 4 Sudeste 0 -- -- 74
2017-09-19 02:00:00 8 0 Calma 4 Noroeste 0 -- -- 71
2017-09-19 01:00:00 9.4 0 Calma 7 Noroeste 0 -- -- 67
2017-09-19 00:00:00 11.5 0 Calma 16 Norte 0 -- -- 57
2017-09-18 23:00:00 13.2 3 Noroeste 18 Noroeste 0 -- -- 51
2017-09-18 22:00:00 14.4 5 Noroeste 22 Noroeste 0 -- -- 49
2017-09-18 21:00:00 15.5 14 Noroeste 28 Noroeste 0 -- -- 48
2017-09-18 20:00:00 17.5 14 Noroeste 32 Noroeste -- -- -- 44
2017-09-18 19:00:00 19.4 15 Noroeste 30 Noroeste 0 -- -- 36
2017-09-18 18:00:00 20.2 5 Oeste 32 Noroeste 0 -- -- 32
2017-09-18 17:00:00 20.9 9 Oeste 36 Noroeste 0 -- -- 30
2017-09-18 16:00:00 20.4 8 Sudeste 19 Nordeste 0 -- -- 32
2017-09-18 15:00:00 20 11 Nordeste 24 Norte 0 -- -- 35
2017-09-18 14:00:00 19.2 8 Nordeste 21 Norte 0 -- -- 37
2017-09-18 13:00:00 17.8 10 Norte 18 Norte 0 -- -- 38
2017-09-18 12:00:00 17.3 10 Norte 21 Norte 0 -- -- 38
2017-09-18 11:00:00 16 3 Sudeste 10 Sudeste 0 -- -- 36
2017-09-18 10:00:00 11.9 3 Sudeste 11 Sudeste 0 -- -- 45
2017-09-18 09:00:00 6.6 3 Noroeste 6 Oeste 0 -- -- 55
2017-09-18 08:00:00 4.6 3 Sudoeste 6 Noroeste 0 -- -- 57
2017-09-18 07:00:00 5 2 Oeste 6 Sudeste 0 -- -- 54
2017-09-18 06:00:00 5.6 3 Sur 6 Sudeste 0 -- -- 53
2017-09-18 05:00:00 6.4 0 Calma 5 Sudoeste 0 -- -- 50
2017-09-18 04:00:00 6.8 0 Calma 4 Noroeste 0 -- -- 48
2017-09-18 03:00:00 7.7 0 Calma 6 Sudeste 0 -- -- 46
2017-09-18 02:00:00 8.6 0 Calma 5 Este 0 -- -- 44
2017-09-18 01:00:00 9.5 0 Calma 4 Sudeste 0 -- -- 41
2017-09-18 00:00:00 11.7 0 Calma 12 Sudoeste 0 -- -- 37
2017-09-17 23:00:00 13.3 0 Calma 12 Sudoeste 0 -- -- 32
2017-09-17 22:00:00 14.5 8 Sudoeste 9 Sudoeste 0 -- -- 31
2017-09-17 21:00:00 16.8 5 Sudoeste 14 Sudoeste 0 -- -- 28
2017-09-17 20:00:00 18.7 5 Sudoeste 19 Oeste 0 -- -- 26
2017-09-17 19:00:00 20.6 9 Oeste 24 Oeste 0 -- -- 26
2017-09-17 18:00:00 21.3 13 Sur 31 Sudoeste 0 -- -- 25
2017-09-17 17:00:00 22.5 9 Sur 32 Oeste 0 -- -- 24
2017-09-17 16:00:00 22.1 9 Sudoeste 29 Sudoeste 0 -- -- 24
2017-09-17 15:00:00 21.9 14 Sur 26 Sudeste 0 -- -- 24
2017-09-17 14:00:00 20.7 16 Sudeste 31 Sudeste 0 -- -- 27
2017-09-17 13:00:00 19.6 7 Sudeste 25 Sudoeste 0 -- -- 29
2017-09-17 12:00:00 17.9 8 Sudoeste 22 Sudeste 0 -- -- 31
2017-09-17 11:00:00 14.9 11 Sudeste 18 Sudeste 0 -- -- 38
2017-09-17 10:00:00 8.2 10 Este 23 Sudeste 0 -- -- 55
2017-09-17 09:00:00 3.6 9 Sudeste 18 Sudeste 0 -- -- 69
2017-09-17 08:00:00 -- -- -- -- -- -- -- -- --
2017-09-17 07:00:00 -- -- -- -- -- -- -- -- --
2017-09-17 06:00:00 -- -- -- -- -- -- -- -- --
2017-09-17 05:00:00 -- -- -- -- -- -- -- -- --
2017-09-17 04:00:00 -- -- -- -- -- -- -- -- --
2017-09-17 03:00:00 -- -- -- -- -- -- -- -- --
2017-09-17 02:00:00 5.6 8 Sudeste 13 Sudeste 0 -- -- 64
2017-09-17 01:00:00 6.1 0 Calma 5 Sudeste 0 -- -- 65
2017-09-17 00:00:00 7.4 0 Calma 5 Sur 0 -- -- 61
2017-09-16 23:00:00 8.9 3 Sur 13 Noroeste 0 -- -- 58
2017-09-16 22:00:00 10.5 2 Sudeste 18 Norte 0 -- -- 51
2017-09-16 21:00:00 11.6 6 Oeste 13 Noroeste 0 -- -- 39
2017-09-16 20:00:00 14.6 4 Oeste 22 Noroeste 0 -- -- 33
2017-09-16 19:00:00 15.7 5 Oeste 26 Oeste 0 -- -- 29
2017-09-16 18:00:00 16.5 10 Oeste 22 Oeste 0 -- -- 28
2017-09-16 17:00:00 17.2 10 Sudeste 17 Este 0 -- -- 34
2017-09-16 16:00:00 15.1 6 Norte 19 Norte 0 -- -- 39
2017-09-16 15:00:00 15.3 12 Norte 24 Noroeste 0 -- -- 42
2017-09-16 14:00:00 14.7 10 Nordeste 22 Norte 0 -- -- 42
2017-09-16 13:00:00 13.9 12 Norte 19 Norte 0 -- -- 47
2017-09-16 12:00:00 -- -- -- -- -- -- -- -- --
2017-09-16 11:00:00 -- -- -- -- -- -- -- -- --
2017-09-16 10:00:00 -- -- -- -- -- -- -- -- --
2017-09-16 09:00:00 -- -- -- -- -- -- -- -- --
2017-09-16 08:00:00 -- -- -- -- -- -- -- -- --
2017-09-16 07:00:00 -- -- -- -- -- -- -- -- --
2017-09-16 06:00:00 -- -- -- -- -- -- -- -- --
2017-09-16 05:00:00 -- -- -- -- -- -- -- -- --
2017-09-16 04:00:00 -- -- -- -- -- -- -- -- --
2017-09-16 03:00:00 -- -- -- -- -- -- -- -- --
2017-09-16 02:00:00 -- -- -- -- -- -- -- -- --
2017-09-16 01:00:00 -- -- -- -- -- -- -- -- --
2017-09-16 00:00:00 -- -- -- -- -- -- -- -- --
2017-09-15 23:00:00 -- -- -- -- -- -- -- -- --
2017-09-15 22:00:00 -- -- -- -- -- -- -- -- --
2017-09-15 21:00:00 -- -- -- -- -- -- -- -- --
2017-09-15 20:00:00 -- -- -- -- -- -- -- -- --
2017-09-15 19:00:00 10.4 8 Norte 22 Noroeste 0 -- -- 63
2017-09-15 18:00:00 10.5 17 Noroeste 31 Noroeste 0 -- -- 57
2017-09-15 17:00:00 11.1 17 Noroeste 30 Noroeste 0 -- -- 54
2017-09-15 16:00:00 10.5 12 Norte 25 Norte 0 -- -- 62
2017-09-15 15:00:00 9 13 Noroeste 27 Noroeste 0 -- -- 69
2017-09-15 14:00:00 8.1 14 Norte 28 Noroeste 0 -- -- 79
2017-09-15 13:00:00 8.2 21 Noroeste 35 Noroeste 0 -- -- 75
2017-09-15 12:00:00 8.7 12 Norte 27 Noroeste 0 -- -- 77
2017-09-15 11:00:00 9 11 Noroeste 25 Oeste 0 -- -- 73
2017-09-15 10:00:00 9.2 9 Norte 20 Norte 0 -- -- 72
2017-09-15 09:00:00 9.9 6 Norte 14 Norte 0 -- -- 68
2017-09-15 08:00:00 10 2 Nordeste 8 Norte 0 -- -- 74
2017-09-15 07:00:00 9.7 5 Norte 13 Oeste 0 -- -- 76
2017-09-15 06:00:00 9.2 10 Noroeste 17 Noroeste 0 -- -- 77
2017-09-15 05:00:00 10.1 0 Calma 11 Noroeste 0 -- -- 73
2017-09-15 04:00:00 10.6 2 Sudeste 6 Norte 0 -- -- 73
2017-09-15 03:00:00 10.8 0 Calma 5 Norte 0 -- -- 73
2017-09-15 02:00:00 10.2 2 Noroeste 7 Norte 0 -- -- 73
2017-09-15 01:00:00 10.1 0 Calma 9 Nordeste 0 -- -- 73
2017-09-15 00:00:00 11.2 6 Norte 17 Nordeste 0 -- -- 70
2017-09-14 23:00:00 12.2 11 Norte 21 Nordeste 0 -- -- 67
2017-09-14 22:00:00 13.6 11 Nordeste 21 Nordeste 0 -- -- 64
2017-09-14 21:00:00 15.8 11 Norte 20 Norte 0 -- -- 59
2017-09-14 20:00:00 18.8 10 Norte 24 Norte 0 -- -- 54
2017-09-14 19:00:00 21.3 15 Noroeste 27 Noroeste 0 -- -- 47
2017-09-14 18:00:00 24 6 Norte 18 Norte 0 -- -- 38
2017-09-14 17:00:00 24.7 10 Noroeste 22 Norte 0 -- -- 38
2017-09-14 16:00:00 24.2 11 Norte 24 Norte 0 -- -- 38
2017-09-14 15:00:00 24 14 Norte 32 Noroeste 0 -- -- 37
2017-09-14 14:00:00 23.9 17 Norte 33 Norte 0 -- -- 37
2017-09-14 13:00:00 24.1 10 Nordeste 23 Norte 0 -- -- 39
2017-09-14 12:00:00 -- -- -- -- -- -- -- -- --
2017-09-14 11:00:00 -- -- -- -- -- -- -- -- --
2017-09-14 10:00:00 -- -- -- -- -- -- -- -- --
2017-09-14 09:00:00 -- -- -- -- -- -- -- -- --
2017-09-14 08:00:00 -- -- -- -- -- -- -- -- --
2017-09-14 07:00:00 11.5 4 Sudeste 21 Este 0 -- -- 68
2017-09-14 06:00:00 12.2 10 Sudeste 21 Sudeste 0 -- -- 65
2017-09-14 05:00:00 12.9 9 Sudeste 16 Sudeste 0 -- -- 63
2017-09-14 04:00:00 13.8 7 Sudeste 13 Sudeste 0 -- -- 60
2017-09-14 03:00:00 15.1 4 Sudeste 19 Sudoeste 0 -- -- 54
2017-09-14 02:00:00 17.2 16 Sudoeste 19 Sudoeste 0 -- -- 46
2017-09-14 01:00:00 17.5 10 Sudoeste 15 Sudoeste 0 -- -- 51
2017-09-14 00:00:00 18.2 9 Sudoeste 15 Sur 0 -- -- 45
2017-09-13 23:00:00 19.3 3 Sudoeste 17 Sudoeste 0 -- -- 42
2017-09-13 22:00:00 20.9 12 Sudoeste 14 Sudoeste 0 -- -- 39
2017-09-13 21:00:00 22.9 4 Sudoeste 12 Sudoeste 0 -- -- 34
2017-09-13 20:00:00 25.2 6 Sudoeste 18 Oeste 0 -- -- 30
2017-09-13 19:00:00 27.4 9 Sudoeste 22 Sudoeste 0 -- -- 27
2017-09-13 18:00:00 28.7 11 Sur 23 Sudeste 0 -- -- 27
2017-09-13 17:00:00 28.8 9 Sur 25 Sur 0 -- -- 24
2017-09-13 16:00:00 28.6 10 Sudoeste 36 Sudeste 0 -- -- 23
2017-09-13 15:00:00 27.7 18 Sudeste 35 Sudeste 0 -- -- 27
2017-09-13 14:00:00 26.4 19 Sudeste 35 Sudeste 0 -- -- 30
2017-09-13 13:00:00 25.3 12 Sudeste 19 Sur 0 -- -- 31
2017-09-13 12:00:00 22.5 9 Nordeste 16 Norte 0 -- -- 40
2017-09-13 11:00:00 19.9 7 Sudeste 18 Este 0 -- -- 47
2017-09-13 10:00:00 14.6 10 Sudeste 23 Sudeste 0 -- -- 56
2017-09-13 09:00:00 10.2 14 Sudeste 25 Sudeste 0 -- -- 67
2017-09-13 08:00:00 8.9 10 Sudeste 21 Este 0 -- -- 68
2017-09-13 07:00:00 9.2 7 Sudeste 15 Este 0 -- -- 67
2017-09-13 06:00:00 9.6 9 Sudeste 17 Este 0 -- -- 66
2017-09-13 05:00:00 -- -- -- -- -- -- -- -- --
2017-09-13 04:00:00 -- -- -- -- -- -- -- -- --
2017-09-13 03:00:00 -- -- -- -- -- -- -- -- --
2017-09-13 02:00:00 -- -- -- -- -- -- -- -- --
2017-09-13 01:00:00 -- -- -- -- -- -- -- -- --
2017-09-13 00:00:00 -- -- -- -- -- -- -- -- --
2017-09-12 23:00:00 15.5 4 Sur 14 Sudoeste 0 -- -- 42
2017-09-12 22:00:00 15.8 3 Sur 11 Noroeste 0 -- -- 42
2017-09-12 21:00:00 17.3 9 Noroeste 17 Noroeste 0 -- -- 36
2017-09-12 20:00:00 20.1 8 Noroeste 22 Noroeste 0 -- -- 31
2017-09-12 19:00:00 22.1 16 Noroeste 30 Noroeste 0 -- -- 27
2017-09-12 18:00:00 22.8 17 Noroeste 34 Noroeste 0 -- -- 26
2017-09-12 17:00:00 23.3 10 Noroeste 35 Norte 0 -- -- 25
2017-09-12 16:00:00 22.2 17 Noroeste 35 Norte 0 -- -- 33
2017-09-12 15:00:00 21.7 18 Norte 33 Noroeste 0 -- -- 33
2017-09-12 14:00:00 20.5 13 Norte 27 Norte 0 -- -- 39
2017-09-12 13:00:00 19.3 14 Norte 34 Norte 0 -- -- 45
2017-09-12 12:00:00 17.9 16 Noroeste 32 Noroeste 0 -- -- 50
2017-09-12 11:00:00 14.7 4 Nordeste 8 Sudeste 0 -- -- 68
2017-09-12 10:00:00 11.8 2 Nordeste 6 Norte 0 -- -- 77
2017-09-12 09:00:00 10.8 0 Calma 6 Oeste 0 -- -- 82
2017-09-12 08:00:00 10.2 4 Norte 15 Noroeste 0 -- -- 83
2017-09-12 07:00:00 9.5 0 Calma 9 Oeste 0 -- -- 75
2017-09-12 06:00:00 10.4 2 Sur 5 Sudeste 0 -- -- 71
2017-09-12 05:00:00 11.4 0 Calma 5 Noroeste 0 -- -- 68
2017-09-12 04:00:00 12.6 0 Calma 6 Sudeste 0 -- -- 66
2017-09-12 03:00:00 14.1 2 Sur 13 Sudoeste 0 -- -- 61
2017-09-12 02:00:00 14.9 5 Sur 11 Sudoeste 0 -- -- 58
2017-09-12 01:00:00 14.9 3 Oeste 5 Oeste 0 -- -- 57
2017-09-12 00:00:00 -- -- -- -- -- -- -- -- --
2017-09-11 23:00:00 -- -- -- -- -- -- -- -- --
2017-09-11 22:00:00 -- -- -- -- -- -- -- -- --
2017-09-11 21:00:00 -- -- -- -- -- -- -- -- --
2017-09-11 20:00:00 -- -- -- -- -- -- -- -- --
2017-09-11 19:00:00 -- -- -- -- -- -- -- -- --
2017-09-11 18:00:00 -- -- -- -- -- -- -- -- --
2017-09-11 17:00:00 -- -- -- -- -- -- -- -- --
2017-09-11 16:00:00 -- -- -- -- -- -- -- -- --
2017-09-11 15:00:00 26.4 13 Oeste 39 Oeste 0 -- -- 29
2017-09-11 14:00:00 25.3 18 Oeste 36 Oeste 0 -- -- 30
2017-09-11 13:00:00 24.6 20 Noroeste 33 Oeste 0 -- -- 32
2017-09-11 12:00:00 23.9 13 Sudoeste 29 Sudoeste 0 -- -- 36
2017-09-11 11:00:00 21.6 6 Este 17 Nordeste 0 -- -- 45
2017-09-11 10:00:00 18.8 8 Noroeste 22 Oeste 0 -- -- 50
2017-09-11 09:00:00 14.4 11 Sudeste 15 Sudeste 0 -- -- 56
2017-09-11 08:00:00 11.8 6 Sur 10 Sudeste 0 -- -- 61
2017-09-11 07:00:00 11.9 4 Sur 10 Sudeste 0 -- -- 60
2017-09-11 06:00:00 12.9 3 Sur 12 Sur 0 -- -- 56
2017-09-11 05:00:00 12.8 0 Calma 15 Sudoeste 0 -- -- 56
2017-09-11 04:00:00 12.4 3 Sur 10 Sudeste 0 -- -- 55
2017-09-11 03:00:00 12.9 4 Sur 18 Sudoeste 0 -- -- 51
2017-09-11 02:00:00 14.2 8 Sudoeste 18 Sur 0 -- -- 46
2017-09-11 01:00:00 14.7 3 Oeste 22 Oeste 0 -- -- 45
2017-09-11 00:00:00 12.5 2 Sudeste 9 Sudeste 0 -- -- 51
2017-09-10 23:00:00 12.2 0 Calma 6 Oeste 0 -- -- 53
2017-09-10 22:00:00 12.8 2 Oeste 6 Noroeste 0 -- -- 49
2017-09-10 21:00:00 14.5 3 Noroeste 18 Noroeste 0 -- -- 45
2017-09-10 20:00:00 16.7 11 Noroeste 33 Oeste 0 -- -- 41
2017-09-10 19:00:00 18.2 18 Noroeste 35 Noroeste 0 -- -- 39
2017-09-10 18:00:00 18.7 19 Noroeste 39 Norte 0 -- -- 38
2017-09-10 17:00:00 18.2 21 Noroeste 39 Noroeste 0 -- -- 37
2017-09-10 16:00:00 17.1 18 Noroeste 37 Noroeste 0 -- -- 41
2017-09-10 15:00:00 16 21 Noroeste 40 Oeste 0 -- -- 44
2017-09-10 14:00:00 14.7 26 Noroeste 44 Norte 0 -- -- 48
2017-09-10 13:00:00 13.7 23 Noroeste 56 Noroeste 0 -- -- 52
2017-09-10 12:00:00 13.2 28 Noroeste 51 Noroeste 0 -- -- 56
2017-09-10 11:00:00 12.1 25 Noroeste 46 Noroeste 0 -- -- 60
2017-09-10 10:00:00 10.7 30 Noroeste 52 Oeste 0 -- -- 65
2017-09-10 09:00:00 9 25 Noroeste 46 Noroeste 0 -- -- 73
2017-09-10 08:00:00 8 21 Noroeste 37 Noroeste 0 -- -- 75
2017-09-10 07:00:00 7.7 11 Noroeste 28 Noroeste 0 -- -- 80
2017-09-10 06:00:00 8.3 10 Noroeste 21 Noroeste 0 -- -- 81
2017-09-10 05:00:00 8.1 0 Calma 13 Noroeste 0 -- -- 84
2017-09-10 04:00:00 8.7 3 Noroeste 8 Oeste 0 -- -- 83
2017-09-10 03:00:00 8.6 2 Noroeste 13 Norte 0 -- -- 86
2017-09-10 02:00:00 9.5 3 Noroeste 10 Noroeste 0 -- -- 88
2017-09-10 01:00:00 9.8 0 Calma 12 Noroeste 0 -- -- 87
2017-09-10 00:00:00 10 7 Norte 22 Norte 0.2 -- -- 88
2017-09-09 23:00:00 10 5 Noroeste 13 Noroeste 0 -- -- 88
2017-09-09 22:00:00 10.5 4 Sudoeste 16 Norte 1.2 -- -- 86
2017-09-09 21:00:00 11.9 5 Norte 17 Norte 0 -- -- 77
2017-09-09 20:00:00 12.3 6 Norte 26 Norte 0 -- -- 75
2017-09-09 19:00:00 12.3 18 Noroeste 45 Norte 0 -- -- 81
2017-09-09 18:00:00 17.6 12 Norte 21 Norte 0 -- -- 53
2017-09-09 17:00:00 17.2 8 Norte 23 Norte 0 -- -- 58
2017-09-09 16:00:00 15.8 15 Noroeste 31 Noroeste 0 -- -- 65
2017-09-09 15:00:00 17.8 9 Noroeste 27 Noroeste 0 -- -- 54
2017-09-09 14:00:00 17.4 18 Noroeste 35 Oeste 0 -- -- 56
2017-09-09 13:00:00 19 16 Norte 40 Noroeste 0 -- -- 50
2017-09-09 12:00:00 19.2 19 Noroeste 36 Noroeste 0 -- -- 47
2017-09-09 11:00:00 17.4 12 Norte 23 Norte 0 -- -- 46
2017-09-09 10:00:00 14.4 0 Calma 10 Sudoeste 0 -- -- 44
2017-09-09 09:00:00 12 3 Sudeste 8 Sur 0 -- -- 51
2017-09-09 08:00:00 11 0 Calma 10 Sudeste 0 -- -- 51
2017-09-09 07:00:00 10.7 0 Calma 9 Sudeste 0 -- -- 52
2017-09-09 06:00:00 10.7 4 Sur 8 Sur 0 -- -- 51
2017-09-09 05:00:00 11.5 3 Sudeste 14 Sudeste 0 -- -- 48
2017-09-09 04:00:00 12 5 Sudeste 15 Sudeste 0 -- -- 47
2017-09-09 03:00:00 12.4 4 Sur 13 Sudeste 0 -- -- 45
2017-09-09 02:00:00 12.9 2 Sur 6 Sudoeste 0 -- -- 44
2017-09-09 01:00:00 13.7 6 Sur 10 Sur 0 -- -- 43
2017-09-09 00:00:00 15.2 2 Sur 10 Sudeste 0 -- -- 40
2017-09-08 23:00:00 17 2 Norte 17 Sudoeste 0 -- -- 34
2017-09-08 22:00:00 18.3 0 Calma 8 Sudoeste 0 -- -- 30
2017-09-08 21:00:00 20.8 6 Oeste 14 Oeste 0 -- -- 27
2017-09-08 20:00:00 24.2 7 Oeste 18 Oeste 0 -- -- 23
2017-09-08 19:00:00 26.7 10 Oeste 22 Sudoeste 0 -- -- 20
2017-09-08 18:00:00 27.8 9 Oeste 22 Sudoeste 0 -- -- 17
2017-09-08 17:00:00 28.3 10 Sudoeste 29 Sur 0 -- -- 16
2017-09-08 16:00:00 27.9 9 Sudoeste 26 Oeste 0 -- -- 18
2017-09-08 15:00:00 27.9 13 Sudoeste 27 Sudoeste 0 -- -- 19
2017-09-08 14:00:00 26.4 10 Sur 27 Sudoeste 0 -- -- 22
2017-09-08 13:00:00 25 13 Sudeste 27 Sudeste 0 -- -- 23
2017-09-08 12:00:00 23.3 9 Sudeste 21 Sudeste 0 -- -- 28
2017-09-08 11:00:00 17.6 13 Este 22 Sudeste 0 -- -- 43
2017-09-08 10:00:00 12.5 12 Sudeste 24 Este 0 -- -- 56
2017-09-08 09:00:00 9.1 15 Sudeste 27 Este 0 -- -- 63
2017-09-08 08:00:00 7.9 12 Este 26 Este 0 -- -- 70
2017-09-08 07:00:00 8 7 Sudeste 22 Sudeste 0 -- -- 69
2017-09-08 06:00:00 8.4 11 Sudeste 28 Este 0 -- -- 68
2017-09-08 05:00:00 8.8 7 Sudeste 14 Sudeste 0 -- -- 67
2017-09-08 04:00:00 9.5 6 Sudeste 16 Este 0 -- -- 65
2017-09-08 03:00:00 10.3 6 Sudeste 17 Este 0 -- -- 62
2017-09-08 02:00:00 11.1 3 Sudeste 8 Sudeste 0 -- -- 59
2017-09-08 01:00:00 12 3 Sudeste 8 Sudeste 0 -- -- 58
2017-09-08 00:00:00 12.9 0 Calma 4 Sudeste 0 -- -- 54
2017-09-07 23:00:00 14.4 0 Calma 6 Noroeste 0 -- -- 48
2017-09-07 22:00:00 16.4 3 Sur 5 Sudeste 0 -- -- 39
2017-09-07 21:00:00 18.1 4 Noroeste 11 Noroeste 0 -- -- 32
2017-09-07 20:00:00 22.2 9 Noroeste 24 Noroeste 0 -- -- 25
2017-09-07 19:00:00 24 17 Noroeste 31 Noroeste 0 -- -- 21
2017-09-07 18:00:00 25.1 17 Noroeste 36 Noroeste 0 -- -- 16
2017-09-07 17:00:00 25.6 18 Noroeste 31 Noroeste 0 -- -- 19
2017-09-07 16:00:00 24.5 13 Norte 31 Norte 0 -- -- 29
2017-09-07 15:00:00 23.8 10 Nordeste 25 Nordeste 0 -- -- 37
2017-09-07 14:00:00 22.5 10 Norte 21 Norte 0 -- -- 39
2017-09-07 13:00:00 21.4 6 Norte 18 Norte 0 -- -- 45
2017-09-07 12:00:00 19.5 9 Norte 16 Norte 0 -- -- 61
2017-09-07 11:00:00 17.6 4 Este 13 Sudeste 0 -- -- 79
2017-09-07 10:00:00 14.2 9 Este 16 Sur 0 -- -- 94
2017-09-07 09:00:00 12.6 4 Sudeste 12 Sudeste 0 -- -- 96
2017-09-07 08:00:00 12.2 3 Sudeste 9 Sudeste 0 -- -- 97
2017-09-07 07:00:00 11.6 2 Noroeste 4 Oeste 0 -- -- 96
2017-09-07 06:00:00 12 0 Calma 5 Oeste 0 -- -- 94
2017-09-07 05:00:00 12 0 Calma 4 Sudoeste 0 -- -- 92
2017-09-07 04:00:00 12.7 0 Calma 5 Noroeste 0 -- -- 91
2017-09-07 03:00:00 13.5 3 Sur 5 Sur 0 -- -- 90
2017-09-07 02:00:00 14.5 3 Sur 4 Oeste 0 -- -- 89
2017-09-07 01:00:00 14.9 0 Calma 5 Sur 0 -- -- 87
2017-09-07 00:00:00 15.1 0 Calma 5 Noroeste 0 -- -- 84
2017-09-06 23:00:00 16.2 2 Sudeste 6 Este 0 -- -- 83
2017-09-06 22:00:00 17.1 4 Sur 7 Sudeste 0 -- -- 83
2017-09-06 21:00:00 18.2 3 Sur 9 Sudeste 0 -- -- 79
2017-09-06 20:00:00 19.6 3 Oeste 24 Sudeste 0 -- -- 69
2017-09-06 19:00:00 21.8 12 Sur 22 Sudoeste 0 -- -- 68
2017-09-06 18:00:00 23.8 10 Este 20 Este 0.2 -- -- 55
2017-09-06 17:00:00 23.8 4 Sur 15 Sudoeste 0.6 -- -- 55
2017-09-06 16:00:00 24.4 2 Este 15 Este 0 -- -- 48
2017-09-06 15:00:00 25.3 8 Este 17 Este 0 -- -- 48
2017-09-06 14:00:00 23.8 5 Nordeste 15 Norte 0 -- -- 53
2017-09-06 13:00:00 23.4 6 Norte 17 Nordeste 0 -- -- 55
2017-09-06 12:00:00 22.3 8 Norte 16 Norte 0 -- -- 58
2017-09-06 11:00:00 20.5 4 Nordeste 12 Nordeste 0 -- -- 66
2017-09-06 10:00:00 18.5 2 Este 6 Sudeste 0 -- -- 75
2017-09-06 09:00:00 14.7 3 Sudeste 5 Sudeste 0 -- -- 87
2017-09-06 08:00:00 13.6 2 Oeste 6 Oeste 0 -- -- 89
2017-09-06 07:00:00 13.9 0 Calma 5 Oeste 0 -- -- 87
2017-09-06 06:00:00 14.8 0 Calma 10 Este 0 -- -- 85
2017-09-06 05:00:00 15.3 0 Calma 5 Oeste 0 -- -- 84
2017-09-06 04:00:00 16 0 Calma 5 Sudeste 0 -- -- 82
2017-09-06 03:00:00 16.7 2 Sudeste 6 Sudeste 0 -- -- 79
2017-09-06 02:00:00 17.2 3 Sur 9 Sur 0 -- -- 75
2017-09-06 01:00:00 18.2 0 Calma 7 Noroeste 0 -- -- 70
2017-09-06 00:00:00 -- -- -- -- -- -- -- -- --
2017-09-05 23:00:00 21.5 6 Noroeste 19 Norte 0 -- -- 62
2017-09-05 22:00:00 21.7 6 Norte 13 Norte 0 -- -- 54
2017-09-05 21:00:00 23.5 0 Calma 6 Nordeste 0 -- -- 48
2017-09-05 20:00:00 26.3 3 Norte 12 Nordeste 0 -- -- 42
2017-09-05 19:00:00 27.8 2 Este 14 Norte 0 -- -- 39
2017-09-05 18:00:00 28.3 6 Norte 14 Norte 0 -- -- 38
2017-09-05 17:00:00 27.8 8 Nordeste 21 Este 0 -- -- 40
2017-09-05 16:00:00 27.1 9 Norte 24 Noroeste -- -- -- 41
2017-09-05 15:00:00 26.3 9 Nordeste 22 Nordeste 0 -- -- 44
2017-09-05 14:00:00 25.3 14 Norte 25 Norte 0 -- -- 49
2017-09-05 13:00:00 24.3 13 Norte 28 Noroeste 0 -- -- 53
2017-09-05 12:00:00 25.1 6 Sudeste 18 Sudeste 0 -- -- 47
2017-09-05 11:00:00 22.1 7 Este 13 Este 0 -- -- 60
2017-09-05 10:00:00 18.8 8 Sudeste 15 Sudeste 0 -- -- 73
2017-09-05 09:00:00 15 8 Sudeste 16 Sudeste 0 -- -- 87
2017-09-05 08:00:00 14.4 6 Sudeste 19 Sur 0 -- -- 88
2017-09-05 07:00:00 14.8 8 Sudeste 21 Sur 0 -- -- 87
2017-09-05 06:00:00 15 9 Sudeste 17 Sudeste 0 -- -- 87
2017-09-05 05:00:00 14.9 8 Sudeste 14 Sudeste 0 -- -- 88
2017-09-05 04:00:00 14.9 4 Sur 6 Sur -- -- -- 88
2017-09-05 03:00:00 15 0 Calma 4 Sudoeste 0 -- -- 85
2017-09-05 02:00:00 15.7 2 Sur 5 Oeste 0 -- -- 85
2017-09-05 01:00:00 16.2 3 Noroeste 7 Noroeste 0 -- -- 83
2017-09-05 00:00:00 17 5 Noroeste 9 Norte 0 -- -- 79
2017-09-04 23:00:00 18.3 4 Noroeste 11 Norte 0 -- -- 77
2017-09-04 22:00:00 19.6 6 Este 24 Este 0 -- -- 71
2017-09-04 21:00:00 21.1 13 Este 23 Este 0 -- -- 65
2017-09-04 20:00:00 23.1 10 Norte 21 Norte 0 -- -- 43
2017-09-04 19:00:00 25.1 4 Norte 19 Norte 0 -- -- 38
2017-09-04 18:00:00 25 5 Noroeste 19 Norte 0 -- -- 39
2017-09-04 17:00:00 24.9 13 Norte 25 Noroeste 0 -- -- 40
2017-09-04 16:00:00 24.4 8 Norte 21 Noroeste 0 -- -- 42
2017-09-04 15:00:00 24.5 12 Nordeste 24 Norte 0 -- -- 42
2017-09-04 14:00:00 23.7 6 Norte 17 Noroeste 0 -- -- 43
2017-09-04 13:00:00 23.1 10 Norte 26 Oeste 0 -- -- 45
2017-09-04 12:00:00 21.8 9 Norte 18 Nordeste 0 -- -- 48
2017-09-04 11:00:00 20.6 10 Norte 23 Noroeste 0 -- -- 52
2017-09-04 10:00:00 17.1 5 Sudeste 10 Norte 0 -- -- 47
2017-09-04 09:00:00 12.1 4 Sudeste 9 Sudeste 0 -- -- 56
2017-09-04 08:00:00 10.7 0 Calma 10 Sudeste 0 -- -- 58
2017-09-04 07:00:00 11.5 0 Calma 10 Sur 0 -- -- 56
2017-09-04 06:00:00 13.3 4 Este 23 Este 0 -- -- 50
2017-09-04 05:00:00 13.9 9 Sudeste 18 Sudeste 0 -- -- 49
2017-09-04 04:00:00 14.3 4 Sudeste 12 Este -- -- -- 51
2017-09-04 03:00:00 14.9 4 Sur 12 Sudeste 0 -- -- 49
2017-09-04 02:00:00 16.9 3 Sur 13 Sudoeste 0 -- -- 45
2017-09-04 01:00:00 19.6 13 Sudoeste 20 Sudoeste 0 -- -- 36
2017-09-04 00:00:00 20 12 Sudoeste 19 Sudoeste 0 -- -- 36
2017-09-03 23:00:00 20.3 13 Sudoeste 19 Sudoeste 0 -- -- 35
2017-09-03 22:00:00 20.6 0 Calma 13 Sudoeste 0 -- -- 35
2017-09-03 21:00:00 22.6 8 Sudoeste 13 Sudoeste 0 -- -- 30
2017-09-03 20:00:00 24.4 6 Oeste 26 Oeste 0 -- -- 29
2017-09-03 19:00:00 26.3 10 Sudoeste 24 Sudoeste 0 -- -- 26
2017-09-03 18:00:00 26.9 8 Sudoeste 26 Noroeste 0 -- -- 25
2017-09-03 17:00:00 27.1 9 Oeste 32 Oeste 0 -- -- 24
2017-09-03 16:00:00 27 13 Oeste 28 Oeste 0 -- -- 22
2017-09-03 15:00:00 27.1 13 Sudoeste 24 Oeste 0 -- -- 20
2017-09-03 14:00:00 26 6 Sudoeste 24 Sur 0 -- -- 23
2017-09-03 13:00:00 25.4 9 Oeste 27 Oeste 0 -- -- 23
2017-09-03 12:00:00 23.5 8 Sudoeste 20 Sudeste 0 -- -- 28
2017-09-03 11:00:00 17.6 6 Este 12 Sudeste 0 -- -- 45
2017-09-03 10:00:00 13.5 4 Sudeste 15 Este 0 -- -- 52
2017-09-03 09:00:00 11.2 6 Sudeste 18 Sudeste 0 -- -- 59
2017-09-03 08:00:00 9.4 4 Sur 22 Sudeste 0 -- -- 66
2017-09-03 07:00:00 9.6 13 Este 23 Sudeste 0 -- -- 63
2017-09-03 06:00:00 8.5 4 Sudeste 16 Este 0 -- -- 70
2017-09-03 05:00:00 9 6 Sudeste 15 Sudeste 0 -- -- 69
2017-09-03 04:00:00 9.2 8 Sudeste 16 Sudeste 0 -- -- 68
2017-09-03 03:00:00 9.3 0 Calma 10 Sudeste 0 -- -- 68
2017-09-03 02:00:00 10.5 2 Este 9 Este 0 -- -- 64
2017-09-03 01:00:00 12 4 Sudeste 17 Sur 0 -- -- 58
2017-09-03 00:00:00 12.4 0 Calma 6 Sudeste 0 -- -- 55
2017-09-02 23:00:00 13.7 3 Oeste 5 Sur 0 -- -- 50
2017-09-02 22:00:00 15.4 0 Calma 9 Sudoeste 0 -- -- 45
2017-09-02 21:00:00 17.4 2 Sudoeste 11 Este 0 -- -- 40
2017-09-02 20:00:00 21 4 Este 15 Nordeste 0 -- -- 33
2017-09-02 19:00:00 22.8 3 Norte 17 Nordeste 0 -- -- 31
2017-09-02 18:00:00 22.6 8 Norte 18 Norte 0 -- -- 32
2017-09-02 17:00:00 22.7 7 Nordeste 18 Norte 0 -- -- 34
2017-09-02 16:00:00 21.8 5 Nordeste 18 Este 0 -- -- 36
2017-09-02 15:00:00 21 7 Este 20 Nordeste 0 -- -- 39
2017-09-02 14:00:00 19.8 8 Nordeste 19 Este 0 -- -- 42
2017-09-02 13:00:00 17 8 Norte 18 Norte 0 -- -- 49
2017-09-02 12:00:00 14.4 5 Norte 14 Noroeste 0 -- -- 58
2017-09-02 11:00:00 12.6 3 Noroeste 14 Nordeste 0 -- -- 69
2017-09-02 10:00:00 11.2 3 Este 10 Este 0 -- -- 76
2017-09-02 09:00:00 8 6 Sudeste 11 Este 0 -- -- 91
2017-09-02 08:00:00 6.5 0 Calma 5 Este 0 -- -- 91
2017-09-02 07:00:00 6.9 0 Calma 4 Noroeste 0 -- -- 91
2017-09-02 06:00:00 7.6 0 Calma 4 Noroeste 0 -- -- 89
2017-09-02 05:00:00 8.2 0 Calma 6 Oeste 0 -- -- 87
2017-09-02 04:00:00 8 3 Oeste 5 Oeste 0 -- -- 87
2017-09-02 03:00:00 9.2 0 Calma 5 Sur 0 -- -- 82
2017-09-02 02:00:00 10.1 0 Calma 7 Noroeste 0 -- -- 79
2017-09-02 01:00:00 11 0 Calma 22 Noroeste 0 -- -- 75
2017-09-02 00:00:00 11.9 12 Noroeste 23 Noroeste 0 -- -- 71
2017-09-01 23:00:00 13.2 13 Noroeste 23 Noroeste 0 -- -- 63
2017-09-01 22:00:00 14.7 15 Noroeste 27 Noroeste 0 -- -- 60
2017-09-01 21:00:00 16.6 14 Noroeste 22 Norte 0 -- -- 59
2017-09-01 20:00:00 18.6 9 Norte 22 Noroeste 0 -- -- 52
2017-09-01 19:00:00 19.6 12 Norte 19 Norte 0 -- -- 50
2017-09-01 18:00:00 20.1 9 Noroeste 24 Noroeste 0 -- -- 49
2017-09-01 17:00:00 20.1 10 Noroeste 21 Norte 0 -- -- 52
2017-09-01 16:00:00 20.7 8 Nordeste 18 Este 0 -- -- 51
2017-09-01 15:00:00 21.1 8 Este 23 Norte 0 -- -- 51
2017-09-01 14:00:00 19 9 Norte 17 Norte 0 -- -- 56
2017-09-01 13:00:00 17.4 9 Norte 17 Norte 0 -- -- 60
2017-09-01 12:00:00 16.1 8 Norte 17 Norte 0 -- -- 63
2017-09-01 11:00:00 14.1 6 Norte 20 Norte 0 -- -- 65
2017-09-01 10:00:00 13.2 9 Norte 19 Norte 0 -- -- 72
2017-09-01 09:00:00 12.9 8 Norte 15 Norte 0 -- -- 77
2017-09-01 08:00:00 12.9 4 Noroeste 9 Noroeste -- -- -- 83
2017-09-01 07:00:00 13 2 Norte 6 Norte 0 -- -- 84
2017-09-01 06:00:00 12.9 4 Norte 8 Norte 0 -- -- 85
2017-09-01 05:00:00 12.7 3 Norte 8 Norte 0 -- -- 87
2017-09-01 04:00:00 12.6 3 Norte 5 Norte 0 -- -- 90
2017-09-01 03:00:00 12.2 2 Oeste 4 Noroeste 0 -- -- 90
2017-09-01 02:00:00 12.5 0 Calma 6 Noroeste 0 -- -- 88
2017-09-01 01:00:00 13.7 2 Norte 4 Norte 0 -- -- 86
2017-09-01 00:00:00 14.6 0 Calma 6 Noroeste 0 -- -- 82
2017-08-31 23:00:00 15.7 6 Noroeste 13 Noroeste 0 -- -- 78
2017-08-31 22:00:00 16.4 3 Norte 6 Norte 0 -- -- 78
2017-08-31 21:00:00 17.5 0 Calma 11 Norte 0 -- -- 73
2017-08-31 20:00:00 18.5 7 Nordeste 17 Nordeste -- -- -- 70
2017-08-31 19:00:00 20 7 Norte 18 Norte 0 -- -- 60
2017-08-31 18:00:00 20.8 10 Norte 21 Norte 0 -- -- 59
2017-08-31 17:00:00 19.2 8 Norte 37 Norte 0 -- -- 63
2017-08-31 16:00:00 20.9 4 Norte 15 Norte 0 -- -- 60
2017-08-31 15:00:00 20.2 8 Nordeste 24 Noroeste 0.6 -- -- 67
2017-08-31 14:00:00 19.9 9 Nordeste 21 Nordeste 0 -- -- 63
2017-08-31 13:00:00 19.4 6 Este 21 Norte 0 -- -- 65
2017-08-31 12:00:00 18.6 8 Norte 18 Norte 0 -- -- 68
2017-08-31 11:00:00 17.8 3 Este 9 Este 0 -- -- 70
2017-08-31 10:00:00 15.9 6 Nordeste 11 Nordeste 0 -- -- 78
2017-08-31 09:00:00 13 5 Este 8 Este 0 -- -- 88
2017-08-31 08:00:00 12.2 0 Calma 6 Oeste 0 -- -- 90
2017-08-31 07:00:00 11.7 0 Calma 7 Noroeste 0 -- -- 88
2017-08-31 06:00:00 11.9 0 Calma 9 Oeste 0 -- -- 86
2017-08-31 05:00:00 12.4 2 Sudeste 8 Noroeste 0 -- -- 83
2017-08-31 04:00:00 13.2 2 Sur 4 Sudeste 0 -- -- 80
2017-08-31 03:00:00 14.1 0 Calma 8 Norte 0 -- -- 77
2017-08-31 02:00:00 14.8 4 Noroeste 8 Oeste 0 -- -- 74
2017-08-31 01:00:00 14.5 0 Calma 9 Sudoeste 0 -- -- 73
2017-08-31 00:00:00 16.2 3 Sur 10 Oeste 0 -- -- 66
2017-08-30 23:00:00 16.9 4 Sudoeste 10 Sur 0 -- -- 63
2017-08-30 22:00:00 18.1 5 Sudoeste 18 Sur 0 -- -- 59
2017-08-30 21:00:00 18.8 7 Sudoeste 13 Oeste 0 -- -- 56
2017-08-30 20:00:00 21.1 9 Sur 21 Sur 0 -- -- 47
2017-08-30 19:00:00 23.3 8 Sudeste 20 Sudeste 0 -- -- 42
2017-08-30 18:00:00 24.1 5 Sur 19 Sudoeste 0 -- -- 39
2017-08-30 17:00:00 22.8 7 Sudoeste 21 Sur 0 -- -- 43
2017-08-30 16:00:00 23 8 Sudoeste 24 Sudoeste 0 -- -- 44
2017-08-30 15:00:00 23.2 11 Sudoeste 24 Sudoeste 0 -- -- 43
2017-08-30 14:00:00 22.5 9 Sudeste 19 Sudeste 0 -- -- 55
2017-08-30 13:00:00 21.4 6 Este 13 Este 0 -- -- 57
2017-08-30 12:00:00 19.9 7 Sudeste 15 Sur 0 -- -- 63
2017-08-30 11:00:00 18.3 6 Sudeste 18 Sur 0 -- -- 69
2017-08-30 10:00:00 17.1 8 Sur 19 Sur 0 -- -- 75
2017-08-30 09:00:00 16 6 Sur 17 Sur 0 -- -- 80
2017-08-30 08:00:00 15.1 5 Sur 14 Este 0 -- -- 83
2017-08-30 07:00:00 15.1 6 Sudeste 17 Sudeste 0 -- -- 82
2017-08-30 06:00:00 14.9 5 Sur 12 Sudoeste 0 -- -- 84
2017-08-30 05:00:00 14.9 5 Sudeste 15 Sudeste 0 -- -- 84
2017-08-30 04:00:00 15.2 10 Sudeste 23 Este 0 -- -- 84
2017-08-30 03:00:00 15.5 13 Sudeste 25 Sudeste 0 -- -- 81
2017-08-30 02:00:00 15.7 6 Sudeste 30 Sudeste 0 -- -- 81
2017-08-30 01:00:00 15.6 8 Sur 15 Sur 0 -- -- 78
2017-08-30 00:00:00 15 7 Sur 21 Sur 0 -- -- 78
2017-08-29 23:00:00 15 12 Sur 30 Sur 0 -- -- 77
2017-08-29 22:00:00 15.5 18 Sur 31 Sudeste 0 -- -- 73
2017-08-29 21:00:00 15.9 13 Sur 35 Sudeste 0 -- -- 72
2017-08-29 20:00:00 16.2 19 Sur 38 Sur 0 -- -- 74
2017-08-29 19:00:00 16.4 11 Sudeste 35 Sudeste 0 -- -- 74
2017-08-29 18:00:00 17 4 Sur 50 Sur 0 -- -- 74
2017-08-29 17:00:00 18.7 17 Sudeste 40 Este 0 -- -- 77
2017-08-29 16:00:00 19.6 22 Sudeste 40 Sudeste 0 -- -- 75
2017-08-29 15:00:00 22.3 19 Sudeste 40 Sudeste 0 -- -- 66
2017-08-29 14:00:00 22.3 21 Sudeste 33 Sudeste 0.2 -- -- 61
2017-08-29 13:00:00 20.8 19 Sudeste 33 Sudeste 0 -- -- 68
2017-08-29 12:00:00 19.3 14 Sudeste 26 Sudeste 0 -- -- 79
2017-08-29 11:00:00 16.4 3 Oeste 6 Oeste 0 -- -- 91
2017-08-29 10:00:00 14.9 2 Oeste 5 Oeste 0 -- -- 92
2017-08-29 09:00:00 13.9 2 Sudeste 6 Sudeste 0 -- -- 95
2017-08-29 08:00:00 13.2 0 Calma 6 Sudoeste 0 -- -- 96
2017-08-29 07:00:00 12.4 5 Sur 12 Oeste 0.4 -- -- 94
2017-08-29 06:00:00 13.2 13 Sudeste 39 Sudeste 6.6 -- -- 93
2017-08-29 05:00:00 13.1 0 Calma 6 Noroeste 0 -- -- 95
2017-08-29 04:00:00 -- -- -- -- -- -- -- -- --
2017-08-29 03:00:00 -- -- -- -- -- -- -- -- --
2017-08-29 02:00:00 -- -- -- -- -- -- -- -- --
2017-08-29 01:00:00 -- -- -- -- -- -- -- -- --
2017-08-29 00:00:00 -- -- -- -- -- -- -- -- --
2017-08-28 23:00:00 15.7 0 Calma 10 Sur 0 -- -- 89
2017-08-28 22:00:00 15.9 8 Sur 19 Sur 1 -- -- 89
2017-08-28 21:00:00 16.1 16 Sur 34 Sur 2.8 -- -- 88
2017-08-28 20:00:00 19.9 9 Sudoeste 27 Sudoeste 0 -- -- 67
2017-08-28 19:00:00 22.4 10 Sur 30 Sudeste 0 -- -- 65
2017-08-28 18:00:00 23.9 21 Sudeste 34 Sudeste 0 -- -- 52
2017-08-28 17:00:00 26.4 14 Sudeste 29 Sudeste 0 -- -- 46
2017-08-28 16:00:00 27.3 19 Sur 35 Sur 0 -- -- 39
2017-08-28 15:00:00 25.8 20 Sur 51 Sudeste 0 -- -- 43
2017-08-28 14:00:00 27.3 26 Sudeste 44 Sudeste 0 -- -- 41
2017-08-28 13:00:00 27.2 5 Sudeste 12 Norte 0 -- -- 37
2017-08-28 12:00:00 24.5 8 Norte 13 Norte 0 -- -- 56
2017-08-28 11:00:00 22.6 5 Nordeste 8 Nordeste 0 -- -- 61
2017-08-28 10:00:00 19 3 Sudeste 8 Este 0 -- -- 79
2017-08-28 09:00:00 15.2 2 Sudeste 8 Oeste 0 -- -- 88
2017-08-28 08:00:00 13.4 2 Este 9 Sudeste 0 -- -- 91
2017-08-28 07:00:00 13 2 Sur 9 Sudeste 0 -- -- 91
2017-08-28 06:00:00 13 2 Sudeste 7 Sudeste 0 -- -- 90
2017-08-28 05:00:00 13.1 2 Nordeste 13 Este 0 -- -- 89
2017-08-28 04:00:00 13.5 8 Sudeste 28 Sudeste 0 -- -- 88
2017-08-28 03:00:00 13.5 10 Sudeste 18 Sudeste 0 -- -- 89
2017-08-28 02:00:00 13.8 2 Sudeste 17 Este 0 -- -- 89
2017-08-28 01:00:00 14.4 5 Sudeste 17 Sudeste 0 -- -- 88
2017-08-28 00:00:00 15.3 9 Sudeste 22 Sudeste 0 -- -- 86
2017-08-27 23:00:00 15.9 11 Sudeste 19 Sudeste 0 -- -- 84
2017-08-27 22:00:00 16 5 Sur 10 Oeste 0 -- -- 86
2017-08-27 21:00:00 17.2 5 Noroeste 12 Norte 0 -- -- 81
2017-08-27 20:00:00 16.7 4 Sur 15 Sudoeste 0.2 -- -- 85
2017-08-27 19:00:00 16 8 Sudoeste 22 Sur 0.2 -- -- 84
2017-08-27 18:00:00 16.6 9 Sur 37 Oeste 1.8 -- -- 81
2017-08-27 17:00:00 24.4 14 Oeste 26 Oeste 0 -- -- 47
2017-08-27 16:00:00 24.6 6 Sudeste 28 Sur 0 -- -- 47
2017-08-27 15:00:00 24.8 16 Sur 39 Sudeste 0 -- -- 50
2017-08-27 14:00:00 26.4 23 Sudeste 37 Sudeste 0 -- -- 39
2017-08-27 13:00:00 27.6 17 Sudeste 32 Sudeste 0 -- -- 35
2017-08-27 12:00:00 26.6 10 Este 19 Sudeste 0 -- -- 41
2017-08-27 11:00:00 22.8 5 Sudeste 18 Sudoeste 0 -- -- 56
2017-08-27 10:00:00 19 10 Sudoeste 21 Oeste 0 -- -- 69
2017-08-27 09:00:00 16.6 5 Sur 15 Sudeste 0 -- -- 81
2017-08-27 08:00:00 15.7 5 Sudeste 12 Sudeste 0 -- -- 84
2017-08-27 07:00:00 16.1 6 Sudeste 17 Este 0 -- -- 85
2017-08-27 06:00:00 16.1 6 Sudeste 14 Este 0 -- -- 84
2017-08-27 05:00:00 16 6 Sudeste 10 Sudeste 0 -- -- 86
2017-08-27 04:00:00 16.3 2 Sudeste 8 Sudeste 0 -- -- 83
2017-08-27 03:00:00 17.2 6 Noroeste 12 Noroeste 0 -- -- 81
2017-08-27 02:00:00 18.3 5 Sudoeste 17 Oeste 0.6 -- -- 77
2017-08-27 01:00:00 19.1 3 Este 8 Este 0 -- -- 68
2017-08-27 00:00:00 19.3 8 Oeste 13 Sudeste 0 -- -- 68
2017-08-26 23:00:00 20.5 6 Noroeste 19 Sur 0 -- -- 61
2017-08-26 22:00:00 22 7 Sudoeste 22 Sur 0 -- -- 54
2017-08-26 21:00:00 22.1 8 Oeste 15 Oeste 0 -- -- 63
2017-08-26 20:00:00 23.3 5 Noroeste 13 Norte 0.2 -- -- 63
2017-08-26 19:00:00 24.6 0 Calma 15 Sudeste 0 -- -- 64
2017-08-26 18:00:00 22.6 9 Sur 34 Oeste 1.4 -- -- 66
2017-08-26 17:00:00 21.3 19 Oeste 43 Oeste 0.6 -- -- 59
2017-08-26 16:00:00 30.8 17 Sudeste 33 Sudeste 0 -- -- 25
2017-08-26 15:00:00 31.4 18 Sudeste 41 Sudeste 0 -- -- 27
2017-08-26 14:00:00 31.2 13 Sudeste 36 Sudeste 0 -- -- 27
2017-08-26 13:00:00 29.7 16 Sudeste 31 Sudeste 0 -- -- 30
2017-08-26 12:00:00 28.2 13 Sudeste 23 Sur 0 -- -- 35
2017-08-26 11:00:00 26 12 Sur 23 Sur 0 -- -- 45
2017-08-26 10:00:00 23.5 13 Sur 23 Sudoeste 0 -- -- 48
2017-08-26 09:00:00 20.9 16 Sur 24 Sur 0 -- -- 52
2017-08-26 08:00:00 18 3 Sudoeste 18 Sudoeste 0 -- -- 64
2017-08-26 07:00:00 19 14 Sudoeste 17 Sudoeste 0 -- -- 60
2017-08-26 06:00:00 18.5 10 Sudoeste 20 Sudoeste 0 -- -- 63
2017-08-26 05:00:00 19 14 Sudoeste 22 Sudoeste 0 -- -- 60
2017-08-26 04:00:00 19.3 12 Sudoeste 22 Sudoeste 0 -- -- 57
2017-08-26 03:00:00 19.8 14 Sudoeste 21 Sudoeste 0 -- -- 57
2017-08-26 02:00:00 20.2 16 Sudoeste 23 Sudoeste 0 -- -- 58
2017-08-26 01:00:00 19.2 0 Calma 14 Sudoeste 0 -- -- 67
2017-08-26 00:00:00 19.5 6 Sudoeste 18 Sur 0 -- -- 69
2017-08-25 23:00:00 18.8 2 Nordeste 10 Noroeste 0 -- -- 73
2017-08-25 22:00:00 19.3 5 Oeste 20 Sudeste 0 -- -- 71
2017-08-25 21:00:00 20.9 13 Este 42 Sudeste 0 -- -- 64
2017-08-25 20:00:00 24 23 Sudeste 45 Sur 0 -- -- 55
2017-08-25 19:00:00 27.4 9 Sudeste 22 Oeste 0 -- -- 34
2017-08-25 18:00:00 29.7 13 Sudeste 43 Sur 0 -- -- 28
2017-08-25 17:00:00 29.4 23 Sudeste 41 Sur 0 -- -- 28
2017-08-25 16:00:00 31.5 14 Sur 38 Sur 0 -- -- 25
2017-08-25 15:00:00 32.4 17 Sur 33 Sudeste 0 -- -- 22
2017-08-25 14:00:00 31.2 11 Sur 32 Sudeste 0 -- -- 24
2017-08-25 13:00:00 27.7 20 Sudeste 50 Sudeste 0 -- -- 30
2017-08-25 12:00:00 29.6 17 Sudeste 29 Sudeste 0 -- -- 27
2017-08-25 11:00:00 24.7 3 Este 15 Sur 0 -- -- 48
2017-08-25 10:00:00 21.5 5 Este 21 Sudeste 0 -- -- 57
2017-08-25 09:00:00 17.8 11 Este 21 Sudeste 0 -- -- 66
2017-08-25 08:00:00 16.5 5 Sudeste 17 Este 0 -- -- 72
2017-08-25 07:00:00 17.3 9 Este 17 Este 0 -- -- 69
2017-08-25 06:00:00 18.6 3 Sudeste 10 Sur 0 -- -- 65
2017-08-25 05:00:00 18.7 4 Este 12 Sudoeste 0 -- -- 68
2017-08-25 04:00:00 20.2 6 Sudoeste 15 Sudoeste 0 -- -- 63
2017-08-25 03:00:00 21.1 9 Sudoeste 23 Sur 0 -- -- 60
2017-08-25 02:00:00 21.8 14 Sur 19 Sur 0 -- -- 60
2017-08-25 01:00:00 21.8 9 Sur 14 Sur 0 -- -- 60
2017-08-25 00:00:00 22.7 10 Sudoeste 22 Sudoeste 0 -- -- 58